sensor_id;sensor_type;location;lat;lon;timestamp;P1;durP1;ratioP1;P2;durP2;ratioP2
13597;SDS011;38563;54.258;12.574;2023-07-31T00:01:04;0.00;;;0.00;;
13597;SDS011;38563;54.258;12.574;2023-07-31T00:03:31;0.00;;;0.00;;
13597;SDS011;38563;54.258;12.574;2023-07-31T00:05:58;0.00;;;0.00;;
13597;SDS011;38563;54.258;12.574;2023-07-31T00:08:26;0.00;;;0.00;;
13597;SDS011;38563;54.258;12.574;2023-07-31T00:10:52;0.00;;;0.00;;
13597;SDS011;38563;54.258;12.574;2023-07-31T00:13:19;0.00;;;0.00;;
13597;SDS011;38563;54.258;12.574;2023-07-31T00:15:46;0.00;;;0.00;;
13597;SDS011;38563;54.258;12.574;2023-07-31T00:18:13;0.00;;;0.00;;
13597;SDS011;38563;54.258;12.574;2023-07-31T00:20:40;0.00;;;0.00;;
13597;SDS011;38563;54.258;12.574;2023-07-31T00:23:06;0.00;;;0.00;;
13597;SDS011;38563;54.258;12.574;2023-07-31T00:25:34;0.00;;;0.00;;
13597;SDS011;38563;54.258;12.574;2023-07-31T00:28:01;0.00;;;0.00;;
13597;SDS011;38563;54.258;12.574;2023-07-31T00:30:28;0.00;;;0.00;;
13597;SDS011;38563;54.258;12.574;2023-07-31T00:32:55;0.00;;;0.00;;
13597;SDS011;38563;54.258;12.574;2023-07-31T00:35:21;0.00;;;0.00;;
13597;SDS011;38563;54.258;12.574;2023-07-31T00:37:48;0.00;;;0.00;;
13597;SDS011;38563;54.258;12.574;2023-07-31T00:40:15;0.00;;;0.00;;
13597;SDS011;38563;54.258;12.574;2023-07-31T00:42:43;0.00;;;0.00;;
13597;SDS011;38563;54.258;12.574;2023-07-31T00:45:10;0.00;;;0.00;;
13597;SDS011;38563;54.258;12.574;2023-07-31T00:47:36;0.10;;;0.10;;
13597;SDS011;38563;54.258;12.574;2023-07-31T00:50:03;0.00;;;0.00;;
13597;SDS011;38563;54.258;12.574;2023-07-31T00:52:31;0.10;;;0.10;;
13597;SDS011;38563;54.258;12.574;2023-07-31T00:54:58;0.00;;;0.00;;
13597;SDS011;38563;54.258;12.574;2023-07-31T00:57:26;0.00;;;0.00;;
13597;SDS011;38563;54.258;12.574;2023-07-31T00:59:54;0.00;;;0.00;;
13597;SDS011;38563;54.258;12.574;2023-07-31T01:02:20;0.00;;;0.00;;
13597;SDS011;38563;54.258;12.574;2023-07-31T01:04:47;0.00;;;0.00;;
13597;SDS011;38563;54.258;12.574;2023-07-31T01:07:20;0.00;;;0.00;;
13597;SDS011;38563;54.258;12.574;2023-07-31T01:09:55;0.00;;;0.00;;
13597;SDS011;38563;54.258;12.574;2023-07-31T01:12:27;0.00;;;0.00;;
13597;SDS011;38563;54.258;12.574;2023-07-31T01:15:04;0.00;;;0.00;;
13597;SDS011;38563;54.258;12.574;2023-07-31T01:17:33;0.00;;;0.00;;
13597;SDS011;38563;54.258;12.574;2023-07-31T01:20:01;0.00;;;0.00;;
13597;SDS011;38563;54.258;12.574;2023-07-31T01:25:35;0.00;;;0.00;;
13597;SDS011;38563;54.258;12.574;2023-07-31T01:28:19;0.00;;;0.00;;
13597;SDS011;38563;54.258;12.574;2023-07-31T01:30:47;0.00;;;0.00;;
13597;SDS011;38563;54.258;12.574;2023-07-31T01:33:15;0.00;;;0.00;;
13597;SDS011;38563;54.258;12.574;2023-07-31T01:35:43;0.10;;;0.10;;
13597;SDS011;38563;54.258;12.574;2023-07-31T01:38:11;0.00;;;0.00;;
13597;SDS011;38563;54.258;12.574;2023-07-31T01:40:40;0.10;;;0.10;;
13597;SDS011;38563;54.258;12.574;2023-07-31T01:43:09;0.00;;;0.00;;
13597;SDS011;38563;54.258;12.574;2023-07-31T01:45:36;0.00;;;0.00;;
13597;SDS011;38563;54.258;12.574;2023-07-31T01:48:03;0.00;;;0.00;;
13597;SDS011;38563;54.258;12.574;2023-07-31T01:50:30;0.00;;;0.00;;
13597;SDS011;38563;54.258;12.574;2023-07-31T01:52:56;0.10;;;0.10;;
13597;SDS011;38563;54.258;12.574;2023-07-31T01:55:23;0.00;;;0.00;;
13597;SDS011;38563;54.258;12.574;2023-07-31T01:57:50;0.00;;;0.00;;
13597;SDS011;38563;54.258;12.574;2023-07-31T02:00:18;0.00;;;0.00;;
13597;SDS011;38563;54.258;12.574;2023-07-31T02:02:45;0.00;;;0.00;;
13597;SDS011;38563;54.258;12.574;2023-07-31T02:05:12;0.00;;;0.00;;
13597;SDS011;38563;54.258;12.574;2023-07-31T02:07:38;0.00;;;0.00;;
13597;SDS011;38563;54.258;12.574;2023-07-31T02:10:05;0.00;;;0.00;;
13597;SDS011;38563;54.258;12.574;2023-07-31T02:12:34;0.00;;;0.00;;
13597;SDS011;38563;54.258;12.574;2023-07-31T02:15:01;0.00;;;0.00;;
13597;SDS011;38563;54.258;12.574;2023-07-31T02:17:30;0.00;;;0.00;;
13597;SDS011;38563;54.258;12.574;2023-07-31T02:19:56;0.00;;;0.00;;
13597;SDS011;38563;54.258;12.574;2023-07-31T02:22:23;0.00;;;0.00;;
13597;SDS011;38563;54.258;12.574;2023-07-31T02:24:50;0.00;;;0.00;;
13597;SDS011;38563;54.258;12.574;2023-07-31T02:27:17;0.00;;;0.00;;
13597;SDS011;38563;54.258;12.574;2023-07-31T02:29:44;0.00;;;0.00;;
13597;SDS011;38563;54.258;12.574;2023-07-31T02:32:11;0.00;;;0.00;;
13597;SDS011;38563;54.258;12.574;2023-07-31T02:34:39;0.00;;;0.00;;
13597;SDS011;38563;54.258;12.574;2023-07-31T02:37:06;0.00;;;0.00;;
13597;SDS011;38563;54.258;12.574;2023-07-31T02:39:33;0.10;;;0.10;;
13597;SDS011;38563;54.258;12.574;2023-07-31T02:41:59;0.00;;;0.00;;
13597;SDS011;38563;54.258;12.574;2023-07-31T02:44:26;0.00;;;0.00;;
13597;SDS011;38563;54.258;12.574;2023-07-31T02:46:53;0.00;;;0.00;;
13597;SDS011;38563;54.258;12.574;2023-07-31T02:49:20;0.00;;;0.00;;
13597;SDS011;38563;54.258;12.574;2023-07-31T02:51:48;0.00;;;0.00;;
13597;SDS011;38563;54.258;12.574;2023-07-31T02:54:15;0.00;;;0.00;;
13597;SDS011;38563;54.258;12.574;2023-07-31T02:56:41;0.00;;;0.00;;
13597;SDS011;38563;54.258;12.574;2023-07-31T02:59:08;0.00;;;0.00;;
13597;SDS011;38563;54.258;12.574;2023-07-31T03:01:35;0.00;;;0.00;;
13597;SDS011;38563;54.258;12.574;2023-07-31T03:04:01;0.00;;;0.00;;
13597;SDS011;38563;54.258;12.574;2023-07-31T03:06:28;0.00;;;0.00;;
13597;SDS011;38563;54.258;12.574;2023-07-31T03:08:56;0.00;;;0.00;;
13597;SDS011;38563;54.258;12.574;2023-07-31T03:11:23;0.00;;;0.00;;
13597;SDS011;38563;54.258;12.574;2023-07-31T03:13:49;0.00;;;0.00;;
13597;SDS011;38563;54.258;12.574;2023-07-31T03:16:16;0.00;;;0.00;;
13597;SDS011;38563;54.258;12.574;2023-07-31T03:18:43;0.00;;;0.00;;
13597;SDS011;38563;54.258;12.574;2023-07-31T03:21:10;0.10;;;0.10;;
13597;SDS011;38563;54.258;12.574;2023-07-31T03:23:36;0.00;;;0.00;;
13597;SDS011;38563;54.258;12.574;2023-07-31T03:26:06;0.00;;;0.00;;
13597;SDS011;38563;54.258;12.574;2023-07-31T03:28:33;0.00;;;0.00;;
13597;SDS011;38563;54.258;12.574;2023-07-31T03:31:00;0.00;;;0.00;;
13597;SDS011;38563;54.258;12.574;2023-07-31T03:33:28;0.00;;;0.00;;
13597;SDS011;38563;54.258;12.574;2023-07-31T03:35:55;0.00;;;0.00;;
13597;SDS011;38563;54.258;12.574;2023-07-31T03:38:22;0.10;;;0.10;;
13597;SDS011;38563;54.258;12.574;2023-07-31T03:40:49;0.00;;;0.00;;
13597;SDS011;38563;54.258;12.574;2023-07-31T03:43:17;0.00;;;0.00;;
13597;SDS011;38563;54.258;12.574;2023-07-31T03:45:43;0.00;;;0.00;;
13597;SDS011;38563;54.258;12.574;2023-07-31T03:48:10;0.00;;;0.00;;
13597;SDS011;38563;54.258;12.574;2023-07-31T03:50:37;0.00;;;0.00;;
13597;SDS011;38563;54.258;12.574;2023-07-31T03:53:04;0.10;;;0.10;;
13597;SDS011;38563;54.258;12.574;2023-07-31T03:55:30;0.10;;;0.10;;
13597;SDS011;38563;54.258;12.574;2023-07-31T03:57:57;0.10;;;0.10;;
13597;SDS011;38563;54.258;12.574;2023-07-31T04:00:26;0.07;;;0.07;;
13597;SDS011;38563;54.258;12.574;2023-07-31T04:02:53;0.10;;;0.10;;
13597;SDS011;38563;54.258;12.574;2023-07-31T04:05:20;0.10;;;0.10;;
13597;SDS011;38563;54.258;12.574;2023-07-31T04:07:47;0.00;;;0.00;;
13597;SDS011;38563;54.258;12.574;2023-07-31T04:10:13;0.10;;;0.10;;
13597;SDS011;38563;54.258;12.574;2023-07-31T04:12:40;0.10;;;0.10;;
13597;SDS011;38563;54.258;12.574;2023-07-31T04:15:07;0.10;;;0.10;;
13597;SDS011;38563;54.258;12.574;2023-07-31T04:17:35;0.10;;;0.10;;
13597;SDS011;38563;54.258;12.574;2023-07-31T04:20:02;0.20;;;0.20;;
13597;SDS011;38563;54.258;12.574;2023-07-31T04:22:29;0.10;;;0.10;;
13597;SDS011;38563;54.258;12.574;2023-07-31T04:24:56;0.10;;;0.10;;
13597;SDS011;38563;54.258;12.574;2023-07-31T04:27:23;0.10;;;0.10;;
13597;SDS011;38563;54.258;12.574;2023-07-31T04:29:50;0.10;;;0.10;;
13597;SDS011;38563;54.258;12.574;2023-07-31T04:32:16;0.20;;;0.20;;
13597;SDS011;38563;54.258;12.574;2023-07-31T04:34:45;0.20;;;0.20;;
13597;SDS011;38563;54.258;12.574;2023-07-31T04:37:12;0.10;;;0.10;;
13597;SDS011;38563;54.258;12.574;2023-07-31T04:39:39;0.10;;;0.10;;
13597;SDS011;38563;54.258;12.574;2023-07-31T04:42:06;0.10;;;0.10;;
13597;SDS011;38563;54.258;12.574;2023-07-31T04:44:32;0.20;;;0.20;;
13597;SDS011;38563;54.258;12.574;2023-07-31T04:46:59;0.10;;;0.10;;
13597;SDS011;38563;54.258;12.574;2023-07-31T04:49:27;0.00;;;0.00;;
13597;SDS011;38563;54.258;12.574;2023-07-31T04:51:55;0.10;;;0.10;;
13597;SDS011;38563;54.258;12.574;2023-07-31T04:54:21;0.10;;;0.10;;
13597;SDS011;38563;54.258;12.574;2023-07-31T04:56:48;0.10;;;0.10;;
13597;SDS011;38563;54.258;12.574;2023-07-31T04:59:15;0.20;;;0.20;;
13597;SDS011;38563;54.258;12.574;2023-07-31T05:01:41;0.10;;;0.10;;
13597;SDS011;38563;54.258;12.574;2023-07-31T05:04:10;0.10;;;0.10;;
13597;SDS011;38563;54.258;12.574;2023-07-31T05:06:38;0.10;;;0.10;;
13597;SDS011;38563;54.258;12.574;2023-07-31T05:09:06;0.10;;;0.10;;
13597;SDS011;38563;54.258;12.574;2023-07-31T05:11:34;0.10;;;0.10;;
13597;SDS011;38563;54.258;12.574;2023-07-31T05:14:01;0.17;;;0.17;;
13597;SDS011;38563;54.258;12.574;2023-07-31T05:16:27;0.10;;;0.10;;
13597;SDS011;38563;54.258;12.574;2023-07-31T05:18:54;0.10;;;0.10;;
13597;SDS011;38563;54.258;12.574;2023-07-31T05:21:21;0.10;;;0.10;;
13597;SDS011;38563;54.258;12.574;2023-07-31T05:23:48;0.20;;;0.20;;
13597;SDS011;38563;54.258;12.574;2023-07-31T05:26:16;0.10;;;0.10;;
13597;SDS011;38563;54.258;12.574;2023-07-31T05:28:43;0.20;;;0.20;;
13597;SDS011;38563;54.258;12.574;2023-07-31T05:31:10;0.10;;;0.10;;
13597;SDS011;38563;54.258;12.574;2023-07-31T05:33:36;0.10;;;0.10;;
13597;SDS011;38563;54.258;12.574;2023-07-31T05:36:03;0.10;;;0.10;;
13597;SDS011;38563;54.258;12.574;2023-07-31T05:38:30;0.10;;;0.10;;
13597;SDS011;38563;54.258;12.574;2023-07-31T05:41:01;0.10;;;0.10;;
13597;SDS011;38563;54.258;12.574;2023-07-31T05:43:32;0.10;;;0.10;;
13597;SDS011;38563;54.258;12.574;2023-07-31T05:45:58;0.20;;;0.20;;
13597;SDS011;38563;54.258;12.574;2023-07-31T05:48:26;0.10;;;0.10;;
13597;SDS011;38563;54.258;12.574;2023-07-31T05:50:53;0.10;;;0.10;;
13597;SDS011;38563;54.258;12.574;2023-07-31T05:53:19;0.13;;;0.13;;
13597;SDS011;38563;54.258;12.574;2023-07-31T05:55:46;0.10;;;0.10;;
13597;SDS011;38563;54.258;12.574;2023-07-31T05:58:13;0.10;;;0.10;;
13597;SDS011;38563;54.258;12.574;2023-07-31T06:00:41;0.17;;;0.17;;
13597;SDS011;38563;54.258;12.574;2023-07-31T06:03:08;0.10;;;0.10;;
13597;SDS011;38563;54.258;12.574;2023-07-31T06:05:34;0.20;;;0.20;;
13597;SDS011;38563;54.258;12.574;2023-07-31T06:08:01;0.10;;;0.10;;
13597;SDS011;38563;54.258;12.574;2023-07-31T06:10:28;0.10;;;0.10;;
13597;SDS011;38563;54.258;12.574;2023-07-31T06:12:55;0.10;;;0.10;;
13597;SDS011;38563;54.258;12.574;2023-07-31T06:15:22;0.20;;;0.20;;
13597;SDS011;38563;54.258;12.574;2023-07-31T06:17:50;0.10;;;0.10;;
13597;SDS011;38563;54.258;12.574;2023-07-31T06:20:17;0.10;;;0.10;;
13597;SDS011;38563;54.258;12.574;2023-07-31T06:22:44;0.20;;;0.20;;
13597;SDS011;38563;54.258;12.574;2023-07-31T06:25:11;0.10;;;0.10;;
13597;SDS011;38563;54.258;12.574;2023-07-31T06:27:38;0.10;;;0.10;;
13597;SDS011;38563;54.258;12.574;2023-07-31T06:30:05;0.10;;;0.10;;
13597;SDS011;38563;54.258;12.574;2023-07-31T06:32:33;0.10;;;0.10;;
13597;SDS011;38563;54.258;12.574;2023-07-31T06:35:01;0.10;;;0.10;;
13597;SDS011;38563;54.258;12.574;2023-07-31T06:37:28;0.20;;;0.20;;
13597;SDS011;38563;54.258;12.574;2023-07-31T06:39:54;0.20;;;0.20;;
13597;SDS011;38563;54.258;12.574;2023-07-31T06:42:21;0.20;;;0.20;;
13597;SDS011;38563;54.258;12.574;2023-07-31T06:44:48;0.20;;;0.20;;
13597;SDS011;38563;54.258;12.574;2023-07-31T06:47:14;0.20;;;0.20;;
13597;SDS011;38563;54.258;12.574;2023-07-31T06:49:41;0.20;;;0.20;;
13597;SDS011;38563;54.258;12.574;2023-07-31T06:52:09;0.10;;;0.10;;
13597;SDS011;38563;54.258;12.574;2023-07-31T06:54:37;0.20;;;0.20;;
13597;SDS011;38563;54.258;12.574;2023-07-31T06:57:04;0.20;;;0.20;;
13597;SDS011;38563;54.258;12.574;2023-07-31T06:59:31;0.20;;;0.20;;
13597;SDS011;38563;54.258;12.574;2023-07-31T07:01:57;0.20;;;0.20;;
13597;SDS011;38563;54.258;12.574;2023-07-31T07:04:24;0.20;;;0.20;;
13597;SDS011;38563;54.258;12.574;2023-07-31T07:06:51;0.20;;;0.20;;
13597;SDS011;38563;54.258;12.574;2023-07-31T07:09:19;0.20;;;0.20;;
13597;SDS011;38563;54.258;12.574;2023-07-31T07:11:46;0.30;;;0.30;;
13597;SDS011;38563;54.258;12.574;2023-07-31T07:14:13;0.20;;;0.20;;
13597;SDS011;38563;54.258;12.574;2023-07-31T07:16:39;0.10;;;0.10;;
13597;SDS011;38563;54.258;12.574;2023-07-31T07:19:07;0.20;;;0.20;;
13597;SDS011;38563;54.258;12.574;2023-07-31T07:21:33;0.20;;;0.20;;
13597;SDS011;38563;54.258;12.574;2023-07-31T07:24:00;0.30;;;0.30;;
13597;SDS011;38563;54.258;12.574;2023-07-31T07:26:28;0.20;;;0.20;;
13597;SDS011;38563;54.258;12.574;2023-07-31T07:28:55;0.40;;;0.40;;
13597;SDS011;38563;54.258;12.574;2023-07-31T07:31:22;0.20;;;0.20;;
13597;SDS011;38563;54.258;12.574;2023-07-31T07:33:49;0.30;;;0.30;;
13597;SDS011;38563;54.258;12.574;2023-07-31T07:36:16;0.20;;;0.20;;
13597;SDS011;38563;54.258;12.574;2023-07-31T07:38:43;0.20;;;0.20;;
13597;SDS011;38563;54.258;12.574;2023-07-31T07:41:09;0.20;;;0.20;;
13597;SDS011;38563;54.258;12.574;2023-07-31T07:43:37;0.20;;;0.20;;
13597;SDS011;38563;54.258;12.574;2023-07-31T07:46:04;0.10;;;0.10;;
13597;SDS011;38563;54.258;12.574;2023-07-31T07:48:31;0.20;;;0.20;;
13597;SDS011;38563;54.258;12.574;2023-07-31T07:50:58;0.30;;;0.30;;
13597;SDS011;38563;54.258;12.574;2023-07-31T07:53:24;0.20;;;0.20;;
13597;SDS011;38563;54.258;12.574;2023-07-31T07:55:51;0.20;;;0.20;;
13597;SDS011;38563;54.258;12.574;2023-07-31T07:58:18;0.20;;;0.20;;
13597;SDS011;38563;54.258;12.574;2023-07-31T08:00:49;0.20;;;0.20;;
13597;SDS011;38563;54.258;12.574;2023-07-31T08:03:17;0.20;;;0.20;;
13597;SDS011;38563;54.258;12.574;2023-07-31T08:05:43;0.20;;;0.20;;
13597;SDS011;38563;54.258;12.574;2023-07-31T08:08:13;0.33;;;0.33;;
13597;SDS011;38563;54.258;12.574;2023-07-31T08:10:41;0.30;;;0.30;;
13597;SDS011;38563;54.258;12.574;2023-07-31T08:13:07;0.30;;;0.30;;
13597;SDS011;38563;54.258;12.574;2023-07-31T08:15:35;0.40;;;0.40;;
13597;SDS011;38563;54.258;12.574;2023-07-31T08:18:03;0.40;;;0.40;;
13597;SDS011;38563;54.258;12.574;2023-07-31T08:20:30;0.20;;;0.20;;
13597;SDS011;38563;54.258;12.574;2023-07-31T08:22:56;0.30;;;0.30;;
13597;SDS011;38563;54.258;12.574;2023-07-31T08:25:23;0.20;;;0.20;;
13597;SDS011;38563;54.258;12.574;2023-07-31T08:27:51;0.30;;;0.30;;
13597;SDS011;38563;54.258;12.574;2023-07-31T08:30:18;0.10;;;0.10;;
13597;SDS011;38563;54.258;12.574;2023-07-31T08:32:45;0.20;;;0.20;;
13597;SDS011;38563;54.258;12.574;2023-07-31T08:35:13;0.20;;;0.20;;
13597;SDS011;38563;54.258;12.574;2023-07-31T08:37:40;0.20;;;0.20;;
13597;SDS011;38563;54.258;12.574;2023-07-31T08:40:07;0.30;;;0.30;;
13597;SDS011;38563;54.258;12.574;2023-07-31T08:42:41;0.10;;;0.10;;
13597;SDS011;38563;54.258;12.574;2023-07-31T08:45:10;0.20;;;0.20;;
13597;SDS011;38563;54.258;12.574;2023-07-31T08:47:40;0.20;;;0.20;;
13597;SDS011;38563;54.258;12.574;2023-07-31T08:50:08;0.20;;;0.20;;
13597;SDS011;38563;54.258;12.574;2023-07-31T08:52:38;0.20;;;0.20;;
13597;SDS011;38563;54.258;12.574;2023-07-31T08:55:05;0.10;;;0.10;;
13597;SDS011;38563;54.258;12.574;2023-07-31T08:57:33;0.20;;;0.20;;
13597;SDS011;38563;54.258;12.574;2023-07-31T09:00:01;0.10;;;0.10;;
13597;SDS011;38563;54.258;12.574;2023-07-31T09:02:31;0.20;;;0.20;;
13597;SDS011;38563;54.258;12.574;2023-07-31T09:05:03;0.40;;;0.40;;
13597;SDS011;38563;54.258;12.574;2023-07-31T09:07:31;0.10;;;0.10;;
13597;SDS011;38563;54.258;12.574;2023-07-31T09:10:01;0.20;;;0.20;;
13597;SDS011;38563;54.258;12.574;2023-07-31T09:12:28;0.10;;;0.10;;
13597;SDS011;38563;54.258;12.574;2023-07-31T09:14:55;0.20;;;0.20;;
13597;SDS011;38563;54.258;12.574;2023-07-31T09:17:28;0.20;;;0.20;;
13597;SDS011;38563;54.258;12.574;2023-07-31T09:19:56;0.10;;;0.10;;
13597;SDS011;38563;54.258;12.574;2023-07-31T09:22:30;0.30;;;0.30;;
13597;SDS011;38563;54.258;12.574;2023-07-31T09:25:05;0.30;;;0.30;;
13597;SDS011;38563;54.258;12.574;2023-07-31T09:27:51;0.30;;;0.30;;
13597;SDS011;38563;54.258;12.574;2023-07-31T09:30:20;0.20;;;0.20;;
13597;SDS011;38563;54.258;12.574;2023-07-31T09:32:47;0.30;;;0.30;;
13597;SDS011;38563;54.258;12.574;2023-07-31T09:35:19;0.33;;;0.33;;
13597;SDS011;38563;54.258;12.574;2023-07-31T09:37:50;0.50;;;0.50;;
13597;SDS011;38563;54.258;12.574;2023-07-31T09:40:31;0.30;;;0.30;;
13597;SDS011;38563;54.258;12.574;2023-07-31T09:42:59;0.33;;;0.33;;
13597;SDS011;38563;54.258;12.574;2023-07-31T09:45:27;0.20;;;0.20;;
13597;SDS011;38563;54.258;12.574;2023-07-31T09:47:54;0.20;;;0.20;;
13597;SDS011;38563;54.258;12.574;2023-07-31T09:50:22;0.30;;;0.30;;
13597;SDS011;38563;54.258;12.574;2023-07-31T09:52:50;0.20;;;0.20;;
13597;SDS011;38563;54.258;12.574;2023-07-31T09:55:18;0.20;;;0.20;;
13597;SDS011;38563;54.258;12.574;2023-07-31T09:57:47;0.20;;;0.20;;
13597;SDS011;38563;54.258;12.574;2023-07-31T10:00:16;0.20;;;0.20;;
13597;SDS011;38563;54.258;12.574;2023-07-31T10:02:44;0.10;;;0.10;;
13597;SDS011;38563;54.258;12.574;2023-07-31T10:05:13;0.20;;;0.20;;
13597;SDS011;38563;54.258;12.574;2023-07-31T10:07:41;0.20;;;0.20;;
13597;SDS011;38563;54.258;12.574;2023-07-31T10:10:09;0.30;;;0.30;;
13597;SDS011;38563;54.258;12.574;2023-07-31T10:12:37;0.20;;;0.20;;
13597;SDS011;38563;54.258;12.574;2023-07-31T10:15:06;0.20;;;0.20;;
13597;SDS011;38563;54.258;12.574;2023-07-31T10:17:35;0.20;;;0.20;;
13597;SDS011;38563;54.258;12.574;2023-07-31T10:20:02;0.20;;;0.20;;
13597;SDS011;38563;54.258;12.574;2023-07-31T10:22:30;0.30;;;0.30;;
13597;SDS011;38563;54.258;12.574;2023-07-31T10:24:58;0.30;;;0.30;;
13597;SDS011;38563;54.258;12.574;2023-07-31T10:27:25;0.30;;;0.30;;
13597;SDS011;38563;54.258;12.574;2023-07-31T10:29:54;0.20;;;0.20;;
13597;SDS011;38563;54.258;12.574;2023-07-31T10:32:25;0.20;;;0.20;;
13597;SDS011;38563;54.258;12.574;2023-07-31T10:34:52;0.20;;;0.20;;
13597;SDS011;38563;54.258;12.574;2023-07-31T10:37:21;0.20;;;0.20;;
13597;SDS011;38563;54.258;12.574;2023-07-31T10:39:58;0.13;;;0.13;;
13597;SDS011;38563;54.258;12.574;2023-07-31T10:42:27;0.20;;;0.20;;
13597;SDS011;38563;54.258;12.574;2023-07-31T10:44:59;0.20;;;0.20;;
13597;SDS011;38563;54.258;12.574;2023-07-31T10:47:28;0.20;;;0.20;;
13597;SDS011;38563;54.258;12.574;2023-07-31T10:50:10;0.20;;;0.20;;
13597;SDS011;38563;54.258;12.574;2023-07-31T10:52:39;0.30;;;0.30;;
13597;SDS011;38563;54.258;12.574;2023-07-31T10:55:13;0.10;;;0.10;;
13597;SDS011;38563;54.258;12.574;2023-07-31T10:57:43;0.20;;;0.20;;
13597;SDS011;38563;54.258;12.574;2023-07-31T11:00:21;0.17;;;0.17;;
13597;SDS011;38563;54.258;12.574;2023-07-31T11:08:20;0.10;;;0.10;;
13597;SDS011;38563;54.258;12.574;2023-07-31T11:10:48;0.10;;;0.10;;
13597;SDS011;38563;54.258;12.574;2023-07-31T11:13:16;0.20;;;0.20;;
13597;SDS011;38563;54.258;12.574;2023-07-31T11:15:43;0.30;;;0.30;;
13597;SDS011;38563;54.258;12.574;2023-07-31T11:18:10;0.20;;;0.20;;
13597;SDS011;38563;54.258;12.574;2023-07-31T11:20:38;0.20;;;0.20;;
13597;SDS011;38563;54.258;12.574;2023-07-31T11:23:06;0.30;;;0.30;;
13597;SDS011;38563;54.258;12.574;2023-07-31T11:25:35;0.10;;;0.10;;
13597;SDS011;38563;54.258;12.574;2023-07-31T11:28:03;0.20;;;0.20;;
13597;SDS011;38563;54.258;12.574;2023-07-31T11:30:31;0.17;;;0.17;;
13597;SDS011;38563;54.258;12.574;2023-07-31T11:33:01;0.10;;;0.10;;
13597;SDS011;38563;54.258;12.574;2023-07-31T11:35:30;0.30;;;0.30;;
13597;SDS011;38563;54.258;12.574;2023-07-31T11:37:59;0.20;;;0.20;;
13597;SDS011;38563;54.258;12.574;2023-07-31T11:40:26;0.20;;;0.20;;
13597;SDS011;38563;54.258;12.574;2023-07-31T11:42:55;0.17;;;0.17;;
13597;SDS011;38563;54.258;12.574;2023-07-31T11:45:24;0.20;;;0.20;;
13597;SDS011;38563;54.258;12.574;2023-07-31T11:47:52;0.20;;;0.20;;
13597;SDS011;38563;54.258;12.574;2023-07-31T11:50:19;0.20;;;0.20;;
13597;SDS011;38563;54.258;12.574;2023-07-31T11:52:46;0.10;;;0.10;;
13597;SDS011;38563;54.258;12.574;2023-07-31T11:55:17;0.20;;;0.20;;
13597;SDS011;38563;54.258;12.574;2023-07-31T11:57:45;0.20;;;0.20;;
13597;SDS011;38563;54.258;12.574;2023-07-31T12:00:13;0.10;;;0.10;;
13597;SDS011;38563;54.258;12.574;2023-07-31T12:02:40;0.10;;;0.10;;
13597;SDS011;38563;54.258;12.574;2023-07-31T12:05:10;0.10;;;0.10;;
13597;SDS011;38563;54.258;12.574;2023-07-31T12:07:47;0.10;;;0.10;;
13597;SDS011;38563;54.258;12.574;2023-07-31T12:10:26;0.10;;;0.10;;
13597;SDS011;38563;54.258;12.574;2023-07-31T12:13:01;0.20;;;0.20;;
13597;SDS011;38563;54.258;12.574;2023-07-31T12:15:33;0.20;;;0.20;;
13597;SDS011;38563;54.258;12.574;2023-07-31T12:39:25;0.00;;;0.00;;
13597;SDS011;38563;54.258;12.574;2023-07-31T12:41:52;0.00;;;0.00;;
13597;SDS011;38563;54.258;12.574;2023-07-31T12:44:19;0.10;;;0.10;;
13597;SDS011;38563;54.258;12.574;2023-07-31T12:46:46;0.10;;;0.10;;
13597;SDS011;38563;54.258;12.574;2023-07-31T12:49:12;0.00;;;0.00;;
13597;SDS011;38563;54.258;12.574;2023-07-31T12:51:39;0.10;;;0.10;;
13597;SDS011;38563;54.258;12.574;2023-07-31T12:54:06;0.10;;;0.10;;
13597;SDS011;38563;54.258;12.574;2023-07-31T12:56:34;0.07;;;0.07;;
13597;SDS011;38563;54.258;12.574;2023-07-31T12:59:01;0.00;;;0.00;;
13597;SDS011;38563;54.258;12.574;2023-07-31T13:01:28;0.00;;;0.00;;
13597;SDS011;38563;54.258;12.574;2023-07-31T13:03:55;0.00;;;0.00;;
13597;SDS011;38563;54.258;12.574;2023-07-31T13:06:22;0.00;;;0.00;;
13597;SDS011;38563;54.258;12.574;2023-07-31T13:08:49;0.00;;;0.00;;
13597;SDS011;38563;54.258;12.574;2023-07-31T13:11:15;0.10;;;0.10;;
13597;SDS011;38563;54.258;12.574;2023-07-31T13:13:43;0.00;;;0.00;;
13597;SDS011;38563;54.258;12.574;2023-07-31T13:16:10;0.00;;;0.00;;
13597;SDS011;38563;54.258;12.574;2023-07-31T13:18:37;0.00;;;0.00;;
13597;SDS011;38563;54.258;12.574;2023-07-31T13:21:04;0.00;;;0.00;;
13597;SDS011;38563;54.258;12.574;2023-07-31T13:23:30;0.10;;;0.10;;
13597;SDS011;38563;54.258;12.574;2023-07-31T13:25:57;0.10;;;0.10;;
13597;SDS011;38563;54.258;12.574;2023-07-31T13:28:24;0.00;;;0.00;;
13597;SDS011;38563;54.258;12.574;2023-07-31T13:30:52;0.00;;;0.00;;
13597;SDS011;38563;54.258;12.574;2023-07-31T13:33:25;0.00;;;0.00;;
13597;SDS011;38563;54.258;12.574;2023-07-31T13:35:52;0.00;;;0.00;;
13597;SDS011;38563;54.258;12.574;2023-07-31T13:38:19;0.10;;;0.10;;
13597;SDS011;38563;54.258;12.574;2023-07-31T13:40:46;0.00;;;0.00;;
13597;SDS011;38563;54.258;12.574;2023-07-31T13:43:13;0.00;;;0.00;;
13597;SDS011;38563;54.258;12.574;2023-07-31T13:45:39;0.10;;;0.10;;
13597;SDS011;38563;54.258;12.574;2023-07-31T13:48:08;0.10;;;0.10;;
13597;SDS011;38563;54.258;12.574;2023-07-31T13:50:34;0.00;;;0.00;;
13597;SDS011;38563;54.258;12.574;2023-07-31T13:53:01;0.00;;;0.00;;
13597;SDS011;38563;54.258;12.574;2023-07-31T13:55:28;0.10;;;0.10;;
13597;SDS011;38563;54.258;12.574;2023-07-31T13:57:54;0.00;;;0.00;;
13597;SDS011;38563;54.258;12.574;2023-07-31T14:00:21;0.00;;;0.00;;
13597;SDS011;38563;54.258;12.574;2023-07-31T14:02:48;0.00;;;0.00;;
13597;SDS011;38563;54.258;12.574;2023-07-31T14:05:16;0.03;;;0.03;;
13597;SDS011;38563;54.258;12.574;2023-07-31T14:07:43;0.10;;;0.10;;
13597;SDS011;38563;54.258;12.574;2023-07-31T14:10:09;0.00;;;0.00;;
13597;SDS011;38563;54.258;12.574;2023-07-31T14:12:36;0.10;;;0.10;;
13597;SDS011;38563;54.258;12.574;2023-07-31T14:15:03;0.00;;;0.00;;
13597;SDS011;38563;54.258;12.574;2023-07-31T14:17:31;0.00;;;0.00;;
13597;SDS011;38563;54.258;12.574;2023-07-31T14:19:57;0.00;;;0.00;;
13597;SDS011;38563;54.258;12.574;2023-07-31T14:22:29;0.00;;;0.00;;
13597;SDS011;38563;54.258;12.574;2023-07-31T14:24:58;0.10;;;0.10;;
13597;SDS011;38563;54.258;12.574;2023-07-31T14:27:25;0.00;;;0.00;;
13597;SDS011;38563;54.258;12.574;2023-07-31T14:29:52;0.00;;;0.00;;
13597;SDS011;38563;54.258;12.574;2023-07-31T14:32:18;0.10;;;0.10;;
13597;SDS011;38563;54.258;12.574;2023-07-31T14:34:45;0.00;;;0.00;;
13597;SDS011;38563;54.258;12.574;2023-07-31T14:37:12;0.00;;;0.00;;
13597;SDS011;38563;54.258;12.574;2023-07-31T14:39:40;0.10;;;0.10;;
13597;SDS011;38563;54.258;12.574;2023-07-31T14:42:06;0.00;;;0.00;;
13597;SDS011;38563;54.258;12.574;2023-07-31T14:44:33;0.00;;;0.00;;
13597;SDS011;38563;54.258;12.574;2023-07-31T14:47:00;0.00;;;0.00;;
13597;SDS011;38563;54.258;12.574;2023-07-31T14:49:26;0.00;;;0.00;;
13597;SDS011;38563;54.258;12.574;2023-07-31T14:51:53;0.10;;;0.10;;
13597;SDS011;38563;54.258;12.574;2023-07-31T14:54:20;0.10;;;0.10;;
13597;SDS011;38563;54.258;12.574;2023-07-31T14:56:48;0.00;;;0.00;;
13597;SDS011;38563;54.258;12.574;2023-07-31T14:59:17;0.00;;;0.00;;
13597;SDS011;38563;54.258;12.574;2023-07-31T15:01:46;0.10;;;0.10;;
13597;SDS011;38563;54.258;12.574;2023-07-31T15:04:13;0.10;;;0.10;;
13597;SDS011;38563;54.258;12.574;2023-07-31T15:06:39;0.10;;;0.10;;